Terminal Aerodrome Forecast
Issued by NWS Sterling, VA

Home | Current Version | Previous Version | Text Only | Print | Product List | Glossary On
Versions: 1 2 3 4 5 6 7 8 9 10 11 12 13 14 15
000
FTUS41 KLWX 111021 AAA
TAFMRB
TAF AMD
KMRB 111021Z 1110/1206 VRB03KT P6SM OVC050
      TEMPO 1110/1111 3SM -SN
     FM111500 15005KT P6SM OVC045
     FM120300 17008KT P6SM OVC080=

USA.gov is the U.S. government's official web portal to all federal, state and local government web resources and services.